createdAt,value
2023-06-28T00:02:14.512Z,0.70
2023-06-28T00:04:41.312Z,0.70
2023-06-28T00:07:08.512Z,0.30
2023-06-28T00:09:35.372Z,0.50
2023-06-28T00:12:01.731Z,0.33
2023-06-28T00:14:28.725Z,0.40
2023-06-28T00:16:55.441Z,1.00
2023-06-28T00:19:27.928Z,0.60
2023-06-28T00:21:58.049Z,0.80
2023-06-28T00:24:24.708Z,0.70
2023-06-28T00:26:51.238Z,0.53
2023-06-28T00:29:17.620Z,0.57
2023-06-28T00:31:44.288Z,0.73
2023-06-28T00:34:10.705Z,0.60
2023-06-28T00:36:37.086Z,0.73
2023-06-28T00:39:03.815Z,1.07
2023-06-28T00:41:30.143Z,0.90
2023-06-28T00:43:56.472Z,0.40
2023-06-28T00:46:22.985Z,0.80
2023-06-28T00:48:49.640Z,0.40
2023-06-28T00:51:17.263Z,0.90
2023-06-28T00:53:43.923Z,0.67
2023-06-28T00:56:10.731Z,0.57
2023-06-28T00:58:37.633Z,0.90
2023-06-28T01:01:03.975Z,0.50
2023-06-28T01:03:30.451Z,0.00
2023-06-28T01:05:58.631Z,0.00
2023-06-28T01:08:27.382Z,0.00
2023-06-28T01:10:56.089Z,0.00
2023-06-28T01:13:23.692Z,0.00
2023-06-28T01:15:50.332Z,0.00
2023-06-28T01:18:21.245Z,0.00
2023-06-28T01:20:50.443Z,0.00
2023-06-28T01:23:17.899Z,0.00
2023-06-28T01:25:44.857Z,0.00
2023-06-28T01:28:11.904Z,0.00
2023-06-28T01:30:38.573Z,0.00
2023-06-28T01:33:05.547Z,0.00
2023-06-28T01:35:33.788Z,0.00
2023-06-28T01:38:01.532Z,0.00
2023-06-28T01:40:28.848Z,0.00
2023-06-28T01:42:56.150Z,0.00
2023-06-28T01:45:22.828Z,0.00
2023-06-28T01:47:49.732Z,0.00
2023-06-28T01:50:17.510Z,0.00
2023-06-28T01:52:44.370Z,0.00
2023-06-28T01:55:12.108Z,0.00
2023-06-28T01:57:38.604Z,0.00
2023-06-28T02:00:10.403Z,0.00
2023-06-28T02:02:37.465Z,0.00
2023-06-28T02:05:05.113Z,0.00
2023-06-28T02:07:31.951Z,0.00
2023-06-28T02:09:58.405Z,0.00
2023-06-28T02:12:24.777Z,0.00
2023-06-28T02:14:54.062Z,0.00
2023-06-28T02:17:22.118Z,0.00
2023-06-28T02:19:49.102Z,0.00
2023-06-28T02:22:16.471Z,0.00
2023-06-28T02:24:43.457Z,0.00
2023-06-28T02:27:12.660Z,0.00
2023-06-28T02:29:39.126Z,0.00
2023-06-28T02:32:05.634Z,0.00
2023-06-28T02:34:32.257Z,0.00
2023-06-28T02:36:59.740Z,0.00
2023-06-28T02:39:26.449Z,0.00
2023-06-28T02:41:52.821Z,0.00
2023-06-28T02:44:19.333Z,0.00
2023-06-28T02:46:45.876Z,0.00
2023-06-28T02:49:12.557Z,0.00
2023-06-28T02:51:38.972Z,0.00
2023-06-28T02:54:05.656Z,0.00
2023-06-28T02:56:32.061Z,0.00
2023-06-28T02:58:58.511Z,0.00
2023-06-28T03:01:25.733Z,0.00
2023-06-28T03:03:52.744Z,0.00
2023-06-28T03:06:19.874Z,0.00
2023-06-28T03:08:46.520Z,0.00
2023-06-28T03:11:13.025Z,0.00
2023-06-28T03:13:39.725Z,0.00
2023-06-28T03:16:06.354Z,0.00
2023-06-28T03:18:32.712Z,0.00
2023-06-28T03:20:59.048Z,0.00
2023-06-28T03:23:25.477Z,0.00
2023-06-28T03:25:53.761Z,0.00
2023-06-28T03:28:20.495Z,0.00
2023-06-28T03:30:46.919Z,0.00
2023-06-28T03:33:13.420Z,0.00
2023-06-28T03:35:39.989Z,0.00
2023-06-28T03:38:07.681Z,0.00
2023-06-28T03:40:34.116Z,0.00
2023-06-28T03:43:02.340Z,0.00
2023-06-28T03:45:30.103Z,0.00
2023-06-28T03:47:56.740Z,0.00
2023-06-28T03:50:23.586Z,0.00
2023-06-28T03:52:50.238Z,0.00
2023-06-28T03:55:17.454Z,0.00
2023-06-28T03:57:43.838Z,0.00
2023-06-28T04:00:30.744Z,0.00
2023-06-28T04:02:57.252Z,0.00
2023-06-28T04:05:24.446Z,0.00
2023-06-28T04:07:58.474Z,0.00
2023-06-28T04:10:26.430Z,0.00
2023-06-28T04:12:53.185Z,0.00
2023-06-28T04:15:19.840Z,0.00
2023-06-28T04:17:47.006Z,0.00
2023-06-28T04:20:13.769Z,0.00
2023-06-28T04:22:40.407Z,0.00
2023-06-28T04:25:07.262Z,0.00
2023-06-28T04:27:33.866Z,0.00
2023-06-28T04:30:00.609Z,0.00
2023-06-28T04:32:28.027Z,0.00
2023-06-28T04:34:55.305Z,0.00
2023-06-28T04:37:22.099Z,0.00
2023-06-28T04:39:49.296Z,0.00
2023-06-28T04:42:15.962Z,0.00
2023-06-28T04:44:44.837Z,0.00
2023-06-28T04:47:16.401Z,0.00
2023-06-28T04:49:49.428Z,0.00
2023-06-28T04:52:20.554Z,0.00
2023-06-28T04:54:47.467Z,0.00
2023-06-28T04:57:14.785Z,0.00
2023-06-28T04:59:41.636Z,0.00
2023-06-28T05:02:08.727Z,0.00
2023-06-28T05:04:38.032Z,0.00
2023-06-28T05:07:07.640Z,0.00
2023-06-28T05:09:35.374Z,0.00
2023-06-28T05:12:03.769Z,0.00
2023-06-28T05:14:31.377Z,0.00
2023-06-28T05:16:58.096Z,0.00
2023-06-28T05:19:25.933Z,0.00
2023-06-28T05:21:52.410Z,0.00
2023-06-28T05:24:19.819Z,0.00
2023-06-28T05:26:46.467Z,0.00
2023-06-28T05:29:13.167Z,0.00
2023-06-28T05:31:43.488Z,0.00
2023-06-28T05:34:10.182Z,0.00
2023-06-28T05:36:36.636Z,0.00
2023-06-28T05:39:03.650Z,0.00
2023-06-28T05:41:30.038Z,0.00
2023-06-28T05:43:56.765Z,0.00
2023-06-28T05:46:23.188Z,0.00
2023-06-28T05:48:51.542Z,0.00
2023-06-28T05:51:18.094Z,0.00
2023-06-28T05:53:44.550Z,0.00
2023-06-28T05:56:11.045Z,0.00
2023-06-28T05:58:37.566Z,0.00
2023-06-28T06:01:05.384Z,0.00
2023-06-28T06:03:31.909Z,0.00
2023-06-28T06:05:59.102Z,0.00
2023-06-28T06:08:25.636Z,0.00
2023-06-28T06:10:52.008Z,0.00
2023-06-28T06:13:18.497Z,0.00
2023-06-28T06:15:44.997Z,0.00
2023-06-28T06:18:11.439Z,0.00
2023-06-28T06:20:37.865Z,0.00
2023-06-28T06:23:04.470Z,0.00
2023-06-28T06:25:30.913Z,0.00
2023-06-28T06:27:57.276Z,0.00
2023-06-28T06:30:24.110Z,0.00
2023-06-28T06:32:51.123Z,0.00
2023-06-28T06:35:17.851Z,0.00
2023-06-28T06:37:46.998Z,0.00
2023-06-28T06:40:13.559Z,0.00
2023-06-28T06:42:42.642Z,0.00
2023-06-28T06:45:09.445Z,0.00
2023-06-28T06:47:38.862Z,0.00
2023-06-28T06:50:06.261Z,0.00
2023-06-28T06:52:33.343Z,0.00
2023-06-28T06:54:59.998Z,0.00
2023-06-28T06:57:26.509Z,0.00
2023-06-28T06:59:53.032Z,0.00
2023-06-28T07:02:21.028Z,0.00
2023-06-28T07:04:47.871Z,0.00
2023-06-28T07:07:14.211Z,0.00
2023-06-28T07:09:41.818Z,0.00
2023-06-28T07:12:10.501Z,0.00
2023-06-28T07:14:36.994Z,0.00
2023-06-28T07:17:03.520Z,0.00
2023-06-28T07:19:30.168Z,0.00
2023-06-28T07:21:56.550Z,0.00
2023-06-28T07:24:23.311Z,0.00
2023-06-28T07:26:50.036Z,0.00
2023-06-28T07:29:19.312Z,0.00
2023-06-28T07:31:45.749Z,0.00
2023-06-28T07:34:12.483Z,0.00
2023-06-28T07:36:38.917Z,0.00
2023-06-28T07:39:05.267Z,0.00
2023-06-28T07:41:31.886Z,0.00
2023-06-28T07:43:58.283Z,0.00
2023-06-28T07:46:24.765Z,0.00
2023-06-28T07:48:54.124Z,0.00
2023-06-28T07:51:20.547Z,0.00
2023-06-28T07:53:47.182Z,0.00
2023-06-28T07:56:14.789Z,0.00
2023-06-28T07:58:41.309Z,0.00
2023-06-28T08:01:08.053Z,0.00
2023-06-28T08:03:34.611Z,0.00
2023-06-28T08:06:00.956Z,0.00
2023-06-28T08:08:27.609Z,0.00
2023-06-28T08:10:54.188Z,0.00
2023-06-28T08:13:20.580Z,0.00
2023-06-28T08:15:47.363Z,0.00
2023-06-28T08:18:17.046Z,0.00
2023-06-28T08:20:45.442Z,0.00
2023-06-28T08:23:11.889Z,0.00
2023-06-28T08:25:38.290Z,0.00
2023-06-28T08:28:04.813Z,0.00
2023-06-28T08:30:31.433Z,0.00
2023-06-28T08:32:58.071Z,0.00
2023-06-28T08:35:24.808Z,0.00
2023-06-28T08:37:51.214Z,0.00
2023-06-28T08:40:18.214Z,0.00
2023-06-28T08:42:46.754Z,0.00
2023-06-28T08:45:15.177Z,0.00
2023-06-28T08:47:43.445Z,0.00
2023-06-28T08:50:11.724Z,0.00
2023-06-28T08:52:38.768Z,0.00
2023-06-28T08:57:37.586Z,0.00
2023-06-28T09:00:09.005Z,0.00
2023-06-28T09:02:37.651Z,0.00
2023-06-28T09:05:07.209Z,0.00
2023-06-28T09:07:35.022Z,0.00
2023-06-28T09:10:02.187Z,0.00
2023-06-28T09:12:29.265Z,0.00
2023-06-28T09:14:56.617Z,0.00
2023-06-28T09:17:24.220Z,0.00
2023-06-28T09:19:51.165Z,0.00
2023-06-28T09:22:17.516Z,0.00
2023-06-28T09:24:43.869Z,0.00
2023-06-28T09:27:13.062Z,0.00
2023-06-28T09:29:41.639Z,0.00
2023-06-28T09:32:08.646Z,0.00
2023-06-28T09:34:38.182Z,0.00
2023-06-28T09:37:05.088Z,0.00
2023-06-28T09:39:36.737Z,0.00
2023-06-28T09:42:03.429Z,0.00
2023-06-28T09:44:31.756Z,0.00
2023-06-28T09:47:03.528Z,0.00
2023-06-28T09:49:30.733Z,0.00
2023-06-28T09:51:59.328Z,0.00
2023-06-28T09:54:39.044Z,0.00
2023-06-28T09:57:06.291Z,0.00
2023-06-28T09:59:36.894Z,0.00
2023-06-28T10:02:13.929Z,0.00
2023-06-28T10:04:40.927Z,0.00
2023-06-28T10:07:10.593Z,0.00
2023-06-28T10:09:39.182Z,0.00
2023-06-28T10:12:09.159Z,0.00
2023-06-28T10:14:41.777Z,0.00
2023-06-28T10:17:11.498Z,0.00
2023-06-28T10:19:39.033Z,0.00
2023-06-28T10:22:05.915Z,0.00
2023-06-28T10:24:37.070Z,0.00
2023-06-28T10:27:05.394Z,0.00
2023-06-28T10:29:31.878Z,0.00
2023-06-28T10:31:58.904Z,0.00
2023-06-28T10:34:26.080Z,0.00
2023-06-28T10:36:52.780Z,0.00
2023-06-28T10:39:19.775Z,0.00
2023-06-28T10:41:46.286Z,0.00
2023-06-28T10:44:12.992Z,0.00
2023-06-28T10:46:39.730Z,0.00
2023-06-28T10:49:06.210Z,0.00
2023-06-28T10:51:34.756Z,0.00
2023-06-28T10:54:15.924Z,0.00
2023-06-28T10:56:49.135Z,0.00
2023-06-28T10:59:16.273Z,0.00
2023-06-28T11:01:59.089Z,0.00
2023-06-28T11:04:27.038Z,0.00
2023-06-28T11:07:09.100Z,0.00
2023-06-28T11:09:36.408Z,0.00
2023-06-28T11:12:04.477Z,0.00
2023-06-28T11:14:32.998Z,0.00
2023-06-28T11:17:03.695Z,0.00
2023-06-28T11:19:30.445Z,0.00
2023-06-28T11:21:58.474Z,0.00
2023-06-28T11:24:26.740Z,0.00
2023-06-28T11:26:54.143Z,0.00
2023-06-28T11:29:22.069Z,0.00
2023-06-28T11:31:50.543Z,0.00
2023-06-28T11:34:18.450Z,0.00
2023-06-28T11:36:46.502Z,0.00
2023-06-28T11:39:17.556Z,0.00
2023-06-28T11:41:44.239Z,0.00
2023-06-28T11:44:12.396Z,0.00
2023-06-28T11:46:40.071Z,0.00
2023-06-28T11:49:09.827Z,0.00
2023-06-28T11:51:36.703Z,0.00
2023-06-28T11:54:06.787Z,0.00
2023-06-28T11:56:45.801Z,0.00
2023-06-28T11:59:22.714Z,0.00
2023-06-28T12:02:01.305Z,0.00
2023-06-28T12:04:28.531Z,0.00
2023-06-28T12:06:55.264Z,0.00
2023-06-28T12:09:23.522Z,0.00
2023-06-28T12:11:51.639Z,0.00
2023-06-28T12:14:18.058Z,0.00
2023-06-28T12:16:46.249Z,0.00
2023-06-28T12:19:15.832Z,0.00
2023-06-28T12:21:42.339Z,0.00
2023-06-28T12:24:27.996Z,0.00
2023-06-28T12:26:57.739Z,0.00
2023-06-28T12:29:26.353Z,0.00
2023-06-28T12:31:55.087Z,0.00
2023-06-28T12:34:26.881Z,0.00
2023-06-28T12:37:00.153Z,0.00
2023-06-28T12:39:31.635Z,0.00
2023-06-28T12:42:22.223Z,0.00
2023-06-28T12:44:54.432Z,0.00
2023-06-28T12:47:25.160Z,0.00
2023-06-28T12:49:52.803Z,0.00
2023-06-28T12:52:29.008Z,0.00
2023-06-28T12:54:56.649Z,0.00
2023-06-28T12:57:25.767Z,0.00
2023-06-28T12:59:52.642Z,0.00
2023-06-28T13:02:19.784Z,0.00
2023-06-28T13:04:46.479Z,0.00
2023-06-28T13:07:13.148Z,0.00
2023-06-28T13:09:40.462Z,0.00
2023-06-28T13:12:07.598Z,0.00
2023-06-28T13:14:34.355Z,0.00
2023-06-28T13:17:01.083Z,0.00
2023-06-28T13:19:27.643Z,0.00
2023-06-28T13:21:54.109Z,0.00
2023-06-28T13:24:24.649Z,0.00
2023-06-28T13:26:56.149Z,0.00
2023-06-28T13:29:22.889Z,0.00
2023-06-28T13:31:49.507Z,0.00
2023-06-28T13:34:16.400Z,0.00
2023-06-28T13:36:44.835Z,0.00
2023-06-28T13:39:11.747Z,0.00
2023-06-28T13:41:38.167Z,0.00
2023-06-28T13:44:04.860Z,0.00
2023-06-28T13:46:31.590Z,0.00
2023-06-28T13:48:58.307Z,0.00
2023-06-28T13:51:24.843Z,0.00
2023-06-28T13:53:51.480Z,0.00
2023-06-28T13:56:18.716Z,0.00
2023-06-28T13:58:45.506Z,0.00
2023-06-28T14:01:13.084Z,0.00
2023-06-28T14:03:39.508Z,0.00
2023-06-28T14:06:06.202Z,0.00
2023-06-28T14:08:32.884Z,0.00
2023-06-28T14:10:59.416Z,0.00
2023-06-28T14:13:25.947Z,0.00
2023-06-28T14:15:52.735Z,0.00
2023-06-28T14:18:20.699Z,0.00
2023-06-28T14:20:47.042Z,0.00
2023-06-28T14:23:15.820Z,0.00
2023-06-28T14:25:42.653Z,0.00
2023-06-28T14:28:09.265Z,0.00
2023-06-28T14:30:35.639Z,0.00
2023-06-28T14:33:02.037Z,0.00
2023-06-28T14:35:28.414Z,0.00
2023-06-28T14:37:56.227Z,0.00
2023-06-28T14:40:22.627Z,0.00
2023-06-28T14:42:49.020Z,0.00
2023-06-28T14:45:15.592Z,0.00
2023-06-28T14:47:43.076Z,0.00
2023-06-28T14:50:10.965Z,0.00
2023-06-28T14:52:38.175Z,0.00
2023-06-28T14:55:05.266Z,0.00
2023-06-28T14:57:31.887Z,0.00
2023-06-28T14:59:59.072Z,0.00
2023-06-28T15:02:25.540Z,0.00
2023-06-28T15:04:53.146Z,0.00
2023-06-28T15:07:19.953Z,0.00
2023-06-28T15:09:46.405Z,0.00
2023-06-28T15:12:13.354Z,0.00
2023-06-28T15:14:40.281Z,0.00
2023-06-28T15:17:07.106Z,0.00
2023-06-28T15:19:34.133Z,0.00
2023-06-28T15:22:01.804Z,0.00
2023-06-28T15:24:28.364Z,0.00
2023-06-28T15:26:57.674Z,0.00
2023-06-28T15:29:26.643Z,0.00
2023-06-28T15:31:53.073Z,0.00
2023-06-28T15:34:21.051Z,0.00
2023-06-28T15:36:47.510Z,0.00
2023-06-28T15:39:14.178Z,0.00
2023-06-28T15:41:41.721Z,0.00
2023-06-28T15:44:09.224Z,0.00
2023-06-28T15:46:35.673Z,0.00
2023-06-28T15:49:04.163Z,0.00
2023-06-28T15:51:30.717Z,0.00
2023-06-28T15:53:57.093Z,0.00
2023-06-28T15:56:23.637Z,0.00
2023-06-28T15:58:53.255Z,0.00
2023-06-28T16:01:20.557Z,0.00
2023-06-28T16:03:47.273Z,0.00
2023-06-28T16:06:14.203Z,0.00
2023-06-28T16:08:41.011Z,0.00
2023-06-28T16:11:07.456Z,0.00
2023-06-28T16:13:34.080Z,0.00
2023-06-28T16:16:06.360Z,0.00
2023-06-28T16:18:32.819Z,0.00
2023-06-28T16:20:59.200Z,0.00
2023-06-28T16:23:25.846Z,0.00
2023-06-28T16:25:52.301Z,0.00
2023-06-28T16:28:21.653Z,0.00
2023-06-28T16:30:48.217Z,0.00
2023-06-28T16:33:14.671Z,0.00
2023-06-28T16:35:41.238Z,0.00
2023-06-28T16:38:07.756Z,0.00
2023-06-28T16:40:34.833Z,0.00
2023-06-28T16:43:03.687Z,0.00
2023-06-28T16:45:32.631Z,0.00
2023-06-28T16:47:59.790Z,0.00
2023-06-28T16:50:26.756Z,0.00
2023-06-28T16:52:53.257Z,0.00
2023-06-28T16:55:20.949Z,0.00
2023-06-28T16:57:48.496Z,0.00
2023-06-28T17:00:15.830Z,0.00
2023-06-28T17:02:48.224Z,0.00
2023-06-28T17:05:17.582Z,0.00
2023-06-28T17:07:44.043Z,0.00
2023-06-28T17:10:13.141Z,0.00
2023-06-28T17:12:42.739Z,0.00
2023-06-28T17:15:12.893Z,0.00
2023-06-28T17:17:40.055Z,0.00
2023-06-28T17:20:07.745Z,0.00
2023-06-28T17:22:39.331Z,0.00
2023-06-28T17:25:08.188Z,0.00
2023-06-28T17:27:34.844Z,0.00
2023-06-28T17:30:01.226Z,0.00
2023-06-28T17:32:28.081Z,0.00
2023-06-28T17:34:54.768Z,0.00
2023-06-28T17:37:21.112Z,0.00
2023-06-28T17:39:47.587Z,0.00
2023-06-28T17:42:14.133Z,0.00
2023-06-28T17:44:40.764Z,0.00
2023-06-28T17:47:08.055Z,0.00
2023-06-28T17:49:34.856Z,0.00
2023-06-28T17:52:01.338Z,0.00
2023-06-28T17:54:29.177Z,0.00
2023-06-28T17:56:55.917Z,0.00
2023-06-28T17:59:22.344Z,0.00
2023-06-28T18:01:48.920Z,0.00
2023-06-28T18:04:15.963Z,0.00
2023-06-28T18:06:42.798Z,0.00
2023-06-28T18:09:09.284Z,0.00
2023-06-28T18:11:35.814Z,0.00
2023-06-28T18:14:02.387Z,0.00
2023-06-28T18:16:28.851Z,0.00
2023-06-28T18:18:55.250Z,0.00
2023-06-28T18:21:21.744Z,0.00
2023-06-28T18:23:48.302Z,0.00
2023-06-28T18:26:14.836Z,0.00
2023-06-28T18:28:41.560Z,0.00
2023-06-28T18:31:08.201Z,0.00
2023-06-28T18:33:34.626Z,0.00
2023-06-28T18:36:00.958Z,0.00
2023-06-28T18:38:27.362Z,0.00
2023-06-28T18:40:54.505Z,0.00
2023-06-28T18:43:21.401Z,0.00
2023-06-28T18:45:50.421Z,0.00
2023-06-28T18:48:18.915Z,0.00
2023-06-28T18:50:45.459Z,0.00
2023-06-28T18:53:13.607Z,0.00
2023-06-28T18:55:40.135Z,0.00
2023-06-28T18:58:09.337Z,0.00
2023-06-28T19:00:35.820Z,0.00
2023-06-28T19:03:02.655Z,0.00
2023-06-28T19:05:29.197Z,0.00
2023-06-28T19:07:55.983Z,0.00
2023-06-28T19:10:22.410Z,0.00
2023-06-28T19:12:48.943Z,0.00
2023-06-28T19:15:15.373Z,0.00
2023-06-28T19:17:42.037Z,0.00
2023-06-28T19:20:10.844Z,0.00
2023-06-28T19:22:37.484Z,0.00
2023-06-28T19:25:04.660Z,0.00
2023-06-28T19:27:30.977Z,0.00
2023-06-28T19:29:57.349Z,0.00
2023-06-28T19:32:24.083Z,0.00
2023-06-28T19:34:50.755Z,0.00
2023-06-28T19:37:17.270Z,0.00
2023-06-28T19:39:44.349Z,0.00
2023-06-28T19:42:10.676Z,0.00
2023-06-28T19:44:37.218Z,0.00
2023-06-28T19:47:04.390Z,0.00
2023-06-28T19:49:31.442Z,0.00
2023-06-28T19:51:58.347Z,0.00
2023-06-28T19:54:25.427Z,0.00
2023-06-28T19:56:53.208Z,0.00
2023-06-28T19:59:19.618Z,0.00
2023-06-28T20:01:46.523Z,0.00
2023-06-28T20:04:13.481Z,0.00
2023-06-28T20:06:42.250Z,0.00
2023-06-28T20:09:09.292Z,0.00
2023-06-28T20:11:36.446Z,0.00
2023-06-28T20:14:07.181Z,0.00
2023-06-28T20:16:33.936Z,0.00
2023-06-28T20:19:00.322Z,0.00
2023-06-28T20:21:26.696Z,0.00
2023-06-28T20:23:55.512Z,0.00
2023-06-28T20:26:22.175Z,0.00
2023-06-28T20:28:50.128Z,0.00
2023-06-28T20:31:16.546Z,0.00
2023-06-28T20:33:43.261Z,0.00
2023-06-28T20:36:09.630Z,0.00
2023-06-28T20:38:37.402Z,0.00
2023-06-28T20:41:04.830Z,0.00
2023-06-28T20:43:35.775Z,0.00
2023-06-28T20:46:02.771Z,0.00
2023-06-28T20:48:30.929Z,0.00
2023-06-28T20:50:57.371Z,0.00
2023-06-28T20:53:23.918Z,0.00
2023-06-28T20:55:50.320Z,0.00
2023-06-28T20:58:17.236Z,0.00
2023-06-28T21:00:44.407Z,0.00
2023-06-28T21:03:11.697Z,0.00
2023-06-28T21:05:38.499Z,0.00
2023-06-28T21:08:05.242Z,0.00
2023-06-28T21:10:31.851Z,0.00
2023-06-28T21:12:58.234Z,0.00
2023-06-28T21:15:24.633Z,0.00
2023-06-28T21:17:52.054Z,0.00
2023-06-28T21:20:18.423Z,0.00
2023-06-28T21:22:44.800Z,0.00
2023-06-28T21:25:11.155Z,0.00
2023-06-28T21:27:39.304Z,0.00
2023-06-28T21:30:07.873Z,0.00
2023-06-28T21:32:34.746Z,0.00
2023-06-28T21:35:01.250Z,0.00
2023-06-28T21:37:27.836Z,0.00
2023-06-28T21:39:54.252Z,0.00
2023-06-28T21:42:20.600Z,0.00
2023-06-28T21:44:47.011Z,0.00
2023-06-28T21:47:13.388Z,0.00
2023-06-28T21:49:40.045Z,0.00
2023-06-28T21:52:06.744Z,0.00
2023-06-28T21:54:33.255Z,0.00
2023-06-28T21:56:59.886Z,0.00
2023-06-28T21:59:29.631Z,0.00
2023-06-28T22:01:56.024Z,0.00
2023-06-28T22:04:22.950Z,0.00
2023-06-28T22:07:04.752Z,0.00
2023-06-28T22:09:32.851Z,0.00
2023-06-28T22:11:59.261Z,0.00
2023-06-28T22:14:25.624Z,0.00
2023-06-28T22:16:54.120Z,0.00
2023-06-28T22:19:23.419Z,0.00
2023-06-28T22:21:51.986Z,0.00
2023-06-28T22:24:18.402Z,0.00
2023-06-28T22:26:44.818Z,0.00
2023-06-28T22:29:11.194Z,0.00
2023-06-28T22:31:37.699Z,0.00
2023-06-28T22:34:04.170Z,0.00
2023-06-28T22:36:33.065Z,0.00
2023-06-28T22:38:59.510Z,0.00
2023-06-28T22:41:26.058Z,0.00
2023-06-28T22:43:52.681Z,0.00
2023-06-28T22:46:19.297Z,0.00
2023-06-28T22:48:45.671Z,0.00
2023-06-28T22:51:12.154Z,0.00
2023-06-28T22:53:38.583Z,0.00
2023-06-28T22:56:05.591Z,0.00
2023-06-28T22:58:32.119Z,0.00
2023-06-28T23:00:58.713Z,0.00
2023-06-28T23:03:25.351Z,0.00
2023-06-28T23:05:53.620Z,0.00
2023-06-28T23:08:21.093Z,0.00
2023-06-28T23:10:49.613Z,0.00
2023-06-28T23:13:17.760Z,0.00
2023-06-28T23:15:44.976Z,0.00
2023-06-28T23:18:21.333Z,0.00
2023-06-28T23:20:49.420Z,0.00
2023-06-28T23:23:18.689Z,0.00
2023-06-28T23:25:53.108Z,0.00
2023-06-28T23:28:20.637Z,0.00
2023-06-28T23:30:47.175Z,0.00
2023-06-28T23:33:16.442Z,0.00
2023-06-28T23:35:45.360Z,0.00
2023-06-28T23:38:15.600Z,0.00
2023-06-28T23:40:42.651Z,0.00
2023-06-28T23:43:09.530Z,0.00
2023-06-28T23:45:35.979Z,0.00
2023-06-28T23:48:03.149Z,0.00
2023-06-28T23:50:29.941Z,0.00
2023-06-28T23:52:56.805Z,0.00
2023-06-28T23:55:26.958Z,0.00
2023-06-28T23:57:53.695Z,0.00
